DAL344 KLAX-KSLC
Flight info
| Callsign | DAL344 |
|---|---|
| Flight time | N/A |
| Altitude | 41000 |
| Route | ORCKA5 LAS Q70 BLIPP Q842 WINEN MLF QWENN6 |
| Aircraft | A359/H-SDE2E3GHIJ3J4J5LM1ORWXY/LB1D1 |
Departure
| Time | 2026-04-21 00:35 |
|---|---|
| Airport | Los Angeles International Airport (KLAX) |
Arrival
| Time | N/A |
|---|---|
| Airport | Salt Lake City International Airport (KSLC) |
| Time | Latitude | Longitude | Altitude | Speed | Heading |
|---|---|---|---|---|---|
| 2026-04-21 00:17 | 33.94545 | -118.40981 | 128 ft | 0 kts | 263° |
| 2026-04-21 00:25 | 33.94546 | -118.40979 | 132 ft | 2 kts | 263° |
| 2026-04-21 00:25 | 33.94548 | -118.40959 | 130 ft | 2 kts | 263° |
| 2026-04-21 00:25 | 33.94550 | -118.40939 | 132 ft | 2 kts | 262° |
| 2026-04-21 00:25 | 33.94552 | -118.40919 | 132 ft | 2 kts | 262° |
| 2026-04-21 00:26 | 33.94553 | -118.40899 | 132 ft | 2 kts | 300° |
| 2026-04-21 00:26 | 33.94540 | -118.40889 | 125 ft | 2 kts | 349° |
| 2026-04-21 00:26 | 33.94532 | -118.40887 | 128 ft | 0 kts | 351° |
| 2026-04-21 00:29 | 33.94533 | -118.40888 | 128 ft | 1 kts | 351° |
| 2026-04-21 00:29 | 33.94570 | -118.40894 | 126 ft | 8 kts | 352° |
| 2026-04-21 00:29 | 33.94636 | -118.40904 | 129 ft | 11 kts | 353° |
| 2026-04-21 00:30 | 33.94722 | -118.40913 | 129 ft | 13 kts | 5° |
| 2026-04-21 00:30 | 33.94818 | -118.40876 | 125 ft | 13 kts | 30° |
| 2026-04-21 00:30 | 33.94848 | -118.40767 | 124 ft | 16 kts | 83° |
| 2026-04-21 00:30 | 33.94862 | -118.40622 | 124 ft | 19 kts | 83° |
| 2026-04-21 00:31 | 33.94880 | -118.40452 | 125 ft | 22 kts | 83° |
| 2026-04-21 00:31 | 33.94900 | -118.40257 | 125 ft | 23 kts | 83° |
| 2026-04-21 00:31 | 33.94916 | -118.40099 | 124 ft | 20 kts | 83° |
| 2026-04-21 00:31 | 33.94932 | -118.39966 | 132 ft | 9 kts | 75° |
| 2026-04-21 00:32 | 33.94941 | -118.39943 | 126 ft | 0 kts | 59° |
| 2026-04-21 00:33 | 33.94942 | -118.39941 | 126 ft | 2 kts | 58° |
| 2026-04-21 00:33 | 33.94986 | -118.39913 | 128 ft | 12 kts | 5° |
| 2026-04-21 00:34 | 33.95038 | -118.39993 | 130 ft | 16 kts | 265° |
| 2026-04-21 00:34 | 33.95011 | -118.40266 | 130 ft | 66 kts | 263° |
| 2026-04-21 00:34 | 33.94924 | -118.41101 | 132 ft | 133 kts | 263° |
| 2026-04-21 00:34 | 33.94795 | -118.42350 | 572 ft | 154 kts | 263° |
| 2026-04-21 00:35 | 33.94672 | -118.43628 | 1410 ft | 154 kts | 264° |
| 2026-04-21 00:35 | 33.94549 | -118.44905 | 2055 ft | 158 kts | 263° |
| 2026-04-21 00:35 | 33.94408 | -118.46293 | 2350 ft | 177 kts | 263° |
| 2026-04-21 00:35 | 33.94246 | -118.47852 | 2641 ft | 198 kts | 262° |
| 2026-04-21 00:36 | 33.94053 | -118.49589 | 2879 ft | 220 kts | 262° |
| 2026-04-21 00:36 | 33.93856 | -118.51516 | 3176 ft | 241 kts | 262° |
| 2026-04-21 00:36 | 33.93661 | -118.53575 | 3694 ft | 252 kts | 263° |
| 2026-04-21 00:36 | 33.93460 | -118.55710 | 4250 ft | 260 kts | 262° |
| 2026-04-21 00:37 | 33.93265 | -118.57862 | 4905 ft | 264 kts | 263° |
| 2026-04-21 00:37 | 33.93068 | -118.60078 | 5524 ft | 268 kts | 262° |
| 2026-04-21 00:37 | 33.92879 | -118.62350 | 6200 ft | 270 kts | 260° |
| 2026-04-21 00:37 | 33.92432 | -118.64505 | 6806 ft | 269 kts | 244° |
| 2026-04-21 00:38 | 33.91423 | -118.66364 | 7466 ft | 264 kts | 223° |
| 2026-04-21 00:38 | 33.89883 | -118.67557 | 8034 ft | 267 kts | 198° |
| 2026-04-21 00:38 | 33.88046 | -118.67769 | 8652 ft | 270 kts | 172° |
| 2026-04-21 00:38 | 33.86308 | -118.66919 | 9308 ft | 275 kts | 146° |
| 2026-04-21 00:39 | 33.85066 | -118.65156 | 9999 ft | 282 kts | 120° |
| 2026-04-21 00:39 | 33.84620 | -118.62808 | 10388 ft | 303 kts | 91° |
| 2026-04-21 00:39 | 33.85190 | -118.60283 | 10613 ft | 326 kts | 64° |
| 2026-04-21 00:39 | 33.86399 | -118.57896 | 10860 ft | 342 kts | 59° |
| 2026-04-21 00:40 | 33.87675 | -118.55425 | 11127 ft | 353 kts | 61° |
| 2026-04-21 00:40 | 33.88920 | -118.52842 | 11542 ft | 359 kts | 63° |
| 2026-04-21 00:40 | 33.90139 | -118.50191 | 12008 ft | 363 kts | 64° |
| 2026-04-21 00:40 | 33.91326 | -118.47537 | 12488 ft | 367 kts | 64° |
| 2026-04-21 00:41 | 33.92536 | -118.44808 | 12957 ft | 371 kts | 63° |
| 2026-04-21 00:41 | 33.93907 | -118.42155 | 13431 ft | 376 kts | 58° |
| 2026-04-21 00:41 | 33.95394 | -118.39531 | 13909 ft | 380 kts | 57° |
| 2026-04-21 00:41 | 33.96906 | -118.36888 | 14320 ft | 384 kts | 57° |
| 2026-04-21 00:42 | 33.98422 | -118.34229 | 14768 ft | 387 kts | 57° |
| 2026-04-21 00:42 | 33.99950 | -118.31541 | 15195 ft | 390 kts | 57° |
| 2026-04-21 00:42 | 34.01490 | -118.28829 | 15632 ft | 393 kts | 57° |
| 2026-04-21 00:42 | 34.03049 | -118.26088 | 16069 ft | 397 kts | 57° |
| 2026-04-21 00:43 | 34.04595 | -118.23360 | 16467 ft | 401 kts | 58° |
| 2026-04-21 00:43 | 34.06196 | -118.20532 | 16889 ft | 404 kts | 58° |
| 2026-04-21 00:43 | 34.07787 | -118.17719 | 17318 ft | 407 kts | 58° |
| 2026-04-21 00:43 | 34.09366 | -118.14928 | 17741 ft | 410 kts | 58° |
| 2026-04-21 00:44 | 34.10980 | -118.12073 | 18148 ft | 413 kts | 58° |
| 2026-04-21 00:44 | 34.12611 | -118.09187 | 18530 ft | 416 kts | 57° |
| 2026-04-21 00:44 | 34.14250 | -118.06297 | 18908 ft | 418 kts | 58° |
| 2026-04-21 00:45 | 34.17525 | -118.00471 | 19746 ft | 420 kts | 58° |
| 2026-04-21 00:45 | 34.19171 | -117.97541 | 20149 ft | 423 kts | 58° |
| 2026-04-21 00:45 | 34.20828 | -117.94591 | 20547 ft | 425 kts | 58° |
| 2026-04-21 00:45 | 34.22490 | -117.91631 | 20955 ft | 427 kts | 58° |
| 2026-04-21 00:46 | 34.24155 | -117.88665 | 21392 ft | 425 kts | 58° |
| 2026-04-21 00:46 | 34.25814 | -117.85706 | 21681 ft | 430 kts | 58° |
| 2026-04-21 00:46 | 34.27501 | -117.82693 | 22045 ft | 433 kts | 58° |
| 2026-04-21 00:46 | 34.29170 | -117.79712 | 22430 ft | 435 kts | 58° |
| 2026-04-21 00:47 | 34.30874 | -117.76668 | 22800 ft | 437 kts | 58° |
| 2026-04-21 00:47 | 34.32579 | -117.73617 | 23189 ft | 439 kts | 58° |
| 2026-04-21 00:47 | 34.34292 | -117.70549 | 23526 ft | 441 kts | 58° |
| 2026-04-21 00:47 | 34.36025 | -117.67480 | 23829 ft | 444 kts | 57° |
| 2026-04-21 00:48 | 34.37839 | -117.64445 | 24116 ft | 446 kts | 56° |
| 2026-04-21 00:48 | 34.39673 | -117.61410 | 24413 ft | 448 kts | 56° |
| 2026-04-21 00:48 | 34.41511 | -117.58357 | 24703 ft | 449 kts | 56° |
| 2026-04-21 00:48 | 34.43356 | -117.55279 | 25004 ft | 451 kts | 56° |
| 2026-04-21 00:49 | 34.45199 | -117.52194 | 25287 ft | 453 kts | 56° |
| 2026-04-21 00:49 | 34.47048 | -117.49093 | 25604 ft | 455 kts | 56° |
| 2026-04-21 00:49 | 34.48900 | -117.45982 | 25929 ft | 456 kts | 56° |
| 2026-04-21 00:49 | 34.50755 | -117.42863 | 26301 ft | 456 kts | 56° |
| 2026-04-21 00:50 | 34.52617 | -117.39728 | 26603 ft | 458 kts | 56° |
| 2026-04-21 00:50 | 34.54487 | -117.36577 | 26921 ft | 460 kts | 56° |
| 2026-04-21 00:50 | 34.56337 | -117.33455 | 27240 ft | 462 kts | 56° |
| 2026-04-21 00:50 | 34.58242 | -117.30240 | 27593 ft | 464 kts | 56° |
| 2026-04-21 00:51 | 34.60130 | -117.27049 | 27949 ft | 466 kts | 56° |
| 2026-04-21 00:51 | 34.62003 | -117.23881 | 28303 ft | 468 kts | 56° |
| 2026-04-21 00:51 | 34.63907 | -117.20657 | 28655 ft | 471 kts | 56° |
| 2026-04-21 00:51 | 34.65817 | -117.17421 | 28937 ft | 473 kts | 56° |
| 2026-04-21 00:52 | 34.67741 | -117.14160 | 29257 ft | 476 kts | 56° |
| 2026-04-21 00:52 | 34.69699 | -117.10835 | 29604 ft | 479 kts | 56° |
| 2026-04-21 00:52 | 34.71623 | -117.07565 | 29916 ft | 482 kts | 56° |
| 2026-04-21 00:52 | 34.73577 | -117.04240 | 30250 ft | 484 kts | 56° |
| 2026-04-21 00:53 | 34.75538 | -117.00903 | 30562 ft | 486 kts | 56° |
| 2026-04-21 00:53 | 34.77509 | -116.97545 | 30883 ft | 489 kts | 56° |
| 2026-04-21 00:53 | 34.79492 | -116.94162 | 31181 ft | 492 kts | 56° |
| 2026-04-21 00:53 | 34.81488 | -116.90756 | 31487 ft | 495 kts | 56° |
| 2026-04-21 00:54 | 34.83487 | -116.87339 | 31855 ft | 496 kts | 56° |
| 2026-04-21 00:54 | 34.85492 | -116.83911 | 32175 ft | 498 kts | 56° |
| 2026-04-21 00:54 | 34.87508 | -116.80460 | 32461 ft | 501 kts | 56° |
| 2026-04-21 00:54 | 34.89534 | -116.76988 | 32747 ft | 504 kts | 56° |
| 2026-04-21 00:55 | 34.91599 | -116.73518 | 33039 ft | 507 kts | 53° |
| 2026-04-21 00:55 | 34.93906 | -116.70253 | 33305 ft | 510 kts | 47° |
| 2026-04-21 00:55 | 34.96314 | -116.67074 | 33573 ft | 512 kts | 47° |
| 2026-04-21 00:55 | 34.98749 | -116.63879 | 33843 ft | 515 kts | 47° |
| 2026-04-21 00:56 | 35.01189 | -116.60673 | 34068 ft | 517 kts | 47° |
| 2026-04-21 00:56 | 35.03642 | -116.57443 | 34288 ft | 520 kts | 47° |
| 2026-04-21 00:56 | 35.06104 | -116.54197 | 34563 ft | 520 kts | 47° |
| 2026-04-21 00:56 | 35.08558 | -116.50957 | 34943 ft | 519 kts | 47° |
| 2026-04-21 00:57 | 35.11005 | -116.47722 | 35301 ft | 517 kts | 47° |
| 2026-04-21 00:57 | 35.13441 | -116.44499 | 35638 ft | 517 kts | 47° |
| 2026-04-21 00:57 | 35.15883 | -116.41264 | 36009 ft | 517 kts | 47° |
| 2026-04-21 00:57 | 35.18319 | -116.38034 | 36367 ft | 516 kts | 48° |
| 2026-04-21 00:58 | 35.20749 | -116.34809 | 36749 ft | 515 kts | 48° |
| 2026-04-21 00:58 | 35.23174 | -116.31587 | 37118 ft | 514 kts | 48° |
| 2026-04-21 00:58 | 35.24777 | -116.29457 | 37347 ft | 513 kts | 48° |
| 2026-04-21 00:58 | 35.27978 | -116.25196 | 37785 ft | 512 kts | 48° |
| 2026-04-21 00:59 | 35.30384 | -116.21991 | 38171 ft | 510 kts | 48° |
| 2026-04-21 00:59 | 35.32007 | -116.19827 | 38422 ft | 510 kts | 48° |
| 2026-04-21 00:59 | 35.35182 | -116.15590 | 38757 ft | 509 kts | 48° |
| 2026-04-21 00:59 | 35.36772 | -116.13465 | 38911 ft | 510 kts | 48° |
| 2026-04-21 01:00 | 35.39170 | -116.10260 | 39123 ft | 510 kts | 48° |
| 2026-04-21 01:00 | 35.41572 | -116.07046 | 39296 ft | 511 kts | 48° |
| 2026-04-21 01:00 | 35.43976 | -116.03825 | 39510 ft | 512 kts | 48° |
| 2026-04-21 01:00 | 35.46383 | -116.00598 | 39727 ft | 512 kts | 48° |
| 2026-04-21 01:01 | 35.48794 | -115.97363 | 39915 ft | 512 kts | 48° |
| 2026-04-21 01:01 | 35.51196 | -115.94137 | 40112 ft | 512 kts | 48° |
| 2026-04-21 01:01 | 35.53593 | -115.90915 | 40459 ft | 509 kts | 48° |
| 2026-04-21 01:01 | 35.55972 | -115.87712 | 40676 ft | 508 kts | 48° |
| 2026-04-21 01:02 | 35.58358 | -115.84498 | 40797 ft | 510 kts | 48° |
| 2026-04-21 01:02 | 35.60751 | -115.81271 | 40909 ft | 512 kts | 48° |
| 2026-04-21 01:02 | 35.65574 | -115.74745 | 40952 ft | 519 kts | 49° |
| 2026-04-21 01:03 | 35.70404 | -115.68088 | 40953 ft | 522 kts | 49° |
| 2026-04-21 01:03 | 35.75209 | -115.61461 | 40955 ft | 521 kts | 49° |
| 2026-04-21 01:04 | 35.80020 | -115.54821 | 40958 ft | 518 kts | 49° |
| 2026-04-21 01:04 | 35.84809 | -115.48201 | 40957 ft | 518 kts | 49° |
| 2026-04-21 01:05 | 35.89604 | -115.41559 | 40955 ft | 518 kts | 49° |
| 2026-04-21 01:05 | 35.94396 | -115.34908 | 40956 ft | 518 kts | 49° |
| 2026-04-21 01:06 | 35.99182 | -115.28254 | 40950 ft | 518 kts | 49° |
| 2026-04-21 01:06 | 36.03972 | -115.21580 | 40926 ft | 518 kts | 49° |
| 2026-04-21 01:07 | 36.08878 | -115.15050 | 40927 ft | 519 kts | 44° |
| 2026-04-21 01:07 | 36.14253 | -115.09097 | 40926 ft | 519 kts | 41° |
| 2026-04-21 01:08 | 36.19735 | -115.03268 | 40860 ft | 519 kts | 41° |
| 2026-04-21 01:08 | 36.25200 | -114.97432 | 40859 ft | 518 kts | 41° |
| 2026-04-21 01:09 | 36.30641 | -114.91566 | 40859 ft | 517 kts | 41° |
| 2026-04-21 01:09 | 36.36029 | -114.85729 | 40848 ft | 517 kts | 41° |
| 2026-04-21 01:10 | 36.41477 | -114.79813 | 40838 ft | 517 kts | 41° |
| 2026-04-21 01:10 | 36.46863 | -114.73961 | 40828 ft | 517 kts | 41° |
| 2026-04-21 01:11 | 36.52267 | -114.68075 | 40820 ft | 516 kts | 41° |
| 2026-04-21 01:11 | 36.57663 | -114.62185 | 40820 ft | 516 kts | 41° |
| 2026-04-21 01:12 | 36.63060 | -114.56285 | 40818 ft | 516 kts | 41° |
| 2026-04-21 01:12 | 36.68453 | -114.50379 | 40827 ft | 516 kts | 41° |
| 2026-04-21 01:13 | 36.74211 | -114.45053 | 40838 ft | 516 kts | 33° |
| 2026-04-21 01:13 | 36.80256 | -114.40228 | 40829 ft | 516 kts | 32° |
| 2026-04-21 01:14 | 36.86326 | -114.35490 | 40837 ft | 515 kts | 31° |
| 2026-04-21 01:14 | 36.92410 | -114.30732 | 40848 ft | 515 kts | 31° |
| 2026-04-21 01:15 | 36.98488 | -114.25953 | 40845 ft | 516 kts | 32° |
| 2026-04-21 01:15 | 37.04550 | -114.21167 | 40861 ft | 514 kts | 32° |
| 2026-04-21 01:16 | 37.10554 | -114.16417 | 40861 ft | 513 kts | 32° |
| 2026-04-21 01:16 | 37.16600 | -114.11626 | 40881 ft | 513 kts | 32° |
| 2026-04-21 01:17 | 37.22642 | -114.06830 | 40884 ft | 513 kts | 32° |
| 2026-04-21 01:17 | 37.28622 | -114.02073 | 40896 ft | 511 kts | 32° |
| 2026-04-21 01:18 | 37.34621 | -113.97293 | 40906 ft | 510 kts | 32° |
| 2026-04-21 01:18 | 37.40608 | -113.92514 | 40905 ft | 510 kts | 32° |
| 2026-04-21 01:19 | 37.46602 | -113.87720 | 40921 ft | 510 kts | 32° |
| 2026-04-21 01:19 | 37.52594 | -113.82916 | 40918 ft | 510 kts | 32° |
| 2026-04-21 01:20 | 37.58572 | -113.78115 | 40920 ft | 509 kts | 32° |
| 2026-04-21 01:20 | 37.64539 | -113.73314 | 40925 ft | 508 kts | 32° |